Time;durP1;ratioP1;P1;durP2;ratioP2;P2;SDS_P1;SDS_P2;PMS_P1;PMS_P2;Temp;Humidity;BMP_temperature;BMP_pressure;BME280_temperature;BME280_humidity;BME280_pressure;Samples;Min_cycle;Max_cycle;Signal;HPM_P1;HPM_P2
2023/10/07 00:00:49;;;;;;;8.23;5.20;;;;;;;;;;5018450;28;20204;-70
2023/10/07 00:03:18;;;;;;;8.98;5.18;;;;;;;;;;5016463;28;20204;-70
2023/10/07 00:05:47;;;;;;;8.90;5.17;;;;;;;;;;5021948;28;20207;-71
2023/10/07 00:08:16;;;;;;;9.13;5.27;;;;;;;;;;5017841;28;20216;-71
2023/10/07 00:10:46;;;;;;;10.20;5.30;;;;;;;;;;5018964;28;20252;-70
2023/10/07 00:13:14;;;;;;;7.63;5.37;;;;;;;;;;5016238;28;20619;-70
2023/10/07 00:15:43;;;;;;;8.73;5.70;;;;;;;;;;5017574;28;20283;-72
2023/10/07 00:18:12;;;;;;;9.07;5.10;;;;;;;;;;5018461;28;20208;-72
2023/10/07 00:20:41;;;;;;;8.53;5.40;;;;;;;;;;5015370;28;20197;-73
2023/10/07 00:23:12;;;;;;;8.43;5.50;;;;;;;;;;5019407;28;20302;-72
2023/10/07 00:25:39;;;;;;;9.37;5.53;;;;;;;;;;5018690;28;20204;-71
2023/10/07 00:28:19;;;;;;;7.50;5.20;;;;;;;;;;5017090;28;20539;-70
2023/10/07 00:30:46;;;;;;;8.73;5.67;;;;;;;;;;5019445;28;20220;-72
2023/10/07 00:33:14;;;;;;;6.43;4.47;;;;;;;;;;5020376;28;20200;-70
2023/10/07 00:35:41;;;;;;;5.90;5.00;;;;;;;;;;5018431;28;20211;-71
2023/10/07 00:38:14;;;;;;;8.33;5.23;;;;;;;;;;5013683;28;20205;-70
2023/10/07 00:40:52;;;;;;;6.00;4.57;;;;;;;;;;5018297;28;21733;-70
2023/10/07 00:43:25;;;;;;;8.33;4.87;;;;;;;;;;5018948;28;20205;-71
2023/10/07 00:45:56;;;;;;;8.18;5.40;;;;;;;;;;5022081;28;20224;-72
2023/10/07 00:48:38;;;;;;;8.77;5.80;;;;;;;;;;5018776;28;20246;-72
2023/10/07 00:51:11;;;;;;;6.73;4.90;;;;;;;;;;5018220;28;20229;-72
2023/10/07 00:53:45;;;;;;;11.47;5.07;;;;;;;;;;5019665;28;20246;-70
2023/10/07 00:56:15;;;;;;;7.20;5.20;;;;;;;;;;5018486;28;20299;-70
2023/10/07 00:58:46;;;;;;;7.17;4.90;;;;;;;;;;5013593;28;20220;-72
2023/10/07 01:01:14;;;;;;;5.87;4.43;;;;;;;;;;5017192;28;20231;-71
2023/10/07 01:03:55;;;;;;;6.20;4.90;;;;;;;;;;5014975;28;20209;-72
2023/10/07 01:06:29;;;;;;;8.80;5.10;;;;;;;;;;5017775;28;20205;-70
2023/10/07 01:09:07;;;;;;;7.67;5.17;;;;;;;;;;5017286;28;20291;-72
2023/10/07 01:11:40;;;;;;;8.27;4.80;;;;;;;;;;5017800;28;20267;-72
2023/10/07 01:14:09;;;;;;;9.53;5.30;;;;;;;;;;5019836;28;20204;-72
2023/10/07 01:16:44;;;;;;;6.40;5.00;;;;;;;;;;5019423;28;20322;-72
2023/10/07 01:19:26;;;;;;;9.37;5.33;;;;;;;;;;5015123;28;20199;-71
2023/10/07 01:21:55;;;;;;;7.83;5.17;;;;;;;;;;5018786;28;20228;-70
2023/10/07 01:24:46;;;;;;;7.40;4.97;;;;;;;;;;5020705;28;20267;-71
2023/10/07 01:27:29;;;;;;;7.30;4.70;;;;;;;;;;5022591;28;20209;-70
2023/10/07 01:30:06;;;;;;;7.80;5.10;;;;;;;;;;5024547;28;20248;-72
2023/10/07 01:32:33;;;;;;;7.33;5.30;;;;;;;;;;5021380;28;20261;-66
2023/10/07 01:35:05;;;;;;;7.23;5.07;;;;;;;;;;5023537;28;20331;-68
2023/10/07 01:37:41;;;;;;;8.43;5.20;;;;;;;;;;5024011;28;20207;-64
2023/10/07 01:40:14;;;;;;;10.93;5.10;;;;;;;;;;5019072;28;20207;-65
2023/10/07 01:42:44;;;;;;;7.33;5.10;;;;;;;;;;5020304;28;20206;-65
2023/10/07 01:45:20;;;;;;;7.57;5.17;;;;;;;;;;5019367;28;20240;-66
2023/10/07 01:47:48;;;;;;;6.60;4.90;;;;;;;;;;5028001;28;20295;-64
2023/10/07 01:50:18;;;;;;;9.63;5.40;;;;;;;;;;5023108;28;20237;-66
2023/10/07 01:52:48;;;;;;;8.03;5.50;;;;;;;;;;5024049;28;20212;-64
2023/10/07 01:55:17;;;;;;;9.30;5.70;;;;;;;;;;5026886;28;20232;-64
2023/10/07 01:57:45;;;;;;;9.10;5.60;;;;;;;;;;5017041;28;20220;-64
2023/10/07 02:00:13;;;;;;;7.37;4.87;;;;;;;;;;5022656;28;20219;-64
2023/10/07 02:02:49;;;;;;;7.03;4.97;;;;;;;;;;5022133;28;20266;-65
2023/10/07 02:05:16;;;;;;;8.30;6.20;;;;;;;;;;5022151;28;20282;-66
2023/10/07 02:07:46;;;;;;;8.70;5.97;;;;;;;;;;5019273;28;20201;-65
2023/10/07 02:10:23;;;;;;;9.33;6.20;;;;;;;;;;5021212;28;20208;-64
2023/10/07 02:12:53;;;;;;;9.77;5.80;;;;;;;;;;5020261;28;20195;-66
2023/10/07 02:15:20;;;;;;;8.00;5.50;;;;;;;;;;5023172;28;20200;-64
2023/10/07 02:17:48;;;;;;;8.47;5.33;;;;;;;;;;5021596;28;20201;-65
2023/10/07 02:20:38;;;;;;;11.00;6.00;;;;;;;;;;5021955;28;20234;-64
2023/10/07 02:23:12;;;;;;;8.27;5.60;;;;;;;;;;5027182;28;20315;-65
2023/10/07 02:25:40;;;;;;;8.57;5.20;;;;;;;;;;5021233;28;20203;-64
2023/10/07 02:28:09;;;;;;;9.02;5.38;;;;;;;;;;5020572;28;20208;-64
2023/10/07 02:30:45;;;;;;;10.57;6.47;;;;;;;;;;5020116;28;20210;-65
2023/10/07 02:33:14;;;;;;;6.77;5.30;;;;;;;;;;5023713;28;20253;-66
2023/10/07 02:35:46;;;;;;;7.00;4.90;;;;;;;;;;5020968;28;20196;-64
2023/10/07 02:38:23;;;;;;;9.20;5.77;;;;;;;;;;5023037;28;20266;-64
2023/10/07 02:40:51;;;;;;;8.80;5.20;;;;;;;;;;5021350;28;20200;-64
2023/10/07 02:43:20;;;;;;;7.90;5.20;;;;;;;;;;5020388;28;20204;-66
2023/10/07 02:45:47;;;;;;;10.20;5.20;;;;;;;;;;5019555;28;20224;-66
2023/10/07 02:48:14;;;;;;;8.73;5.50;;;;;;;;;;5020496;28;20324;-66
2023/10/07 02:50:42;;;;;;;7.97;5.97;;;;;;;;;;5023860;28;20200;-64
2023/10/07 02:53:14;;;;;;;8.43;5.30;;;;;;;;;;5023490;28;20200;-70
2023/10/07 02:55:47;;;;;;;8.47;5.70;;;;;;;;;;5017910;28;20212;-69
2023/10/07 02:58:26;;;;;;;9.67;6.03;;;;;;;;;;5018611;28;20254;-70
2023/10/07 03:00:59;;;;;;;8.03;6.00;;;;;;;;;;5016876;28;20234;-71
2023/10/07 03:03:38;;;;;;;7.50;5.60;;;;;;;;;;5017819;28;20205;-71
2023/10/07 03:06:07;;;;;;;9.23;6.20;;;;;;;;;;5021828;28;20219;-71
2023/10/07 03:08:44;;;;;;;8.80;6.53;;;;;;;;;;5017945;28;20204;-70
2023/10/07 03:11:11;;;;;;;7.33;5.63;;;;;;;;;;5017749;28;20228;-71
2023/10/07 03:13:45;;;;;;;10.03;6.90;;;;;;;;;;5021172;28;20212;-71
2023/10/07 03:16:35;;;;;;;9.40;5.90;;;;;;;;;;5021895;28;20209;-71
2023/10/07 03:19:19;;;;;;;13.87;6.30;;;;;;;;;;5021032;28;20268;-71
2023/10/07 03:21:57;;;;;;;10.53;6.47;;;;;;;;;;5020656;28;20196;-71
2023/10/07 03:24:41;;;;;;;10.77;6.93;;;;;;;;;;5019871;28;20298;-71
2023/10/07 03:27:11;;;;;;;13.17;7.17;;;;;;;;;;5018930;28;20205;-71
2023/10/07 03:29:39;;;;;;;11.47;7.13;;;;;;;;;;5021968;28;20247;-71
2023/10/07 03:32:13;;;;;;;12.77;8.00;;;;;;;;;;5020682;28;20228;-71
2023/10/07 03:34:45;;;;;;;12.60;7.10;;;;;;;;;;5019485;28;20205;-71
2023/10/07 03:37:17;;;;;;;11.77;7.30;;;;;;;;;;5021543;28;20211;-71
2023/10/07 03:39:56;;;;;;;9.10;6.70;;;;;;;;;;5019020;28;20204;-70
2023/10/07 03:42:24;;;;;;;12.00;7.97;;;;;;;;;;5019862;28;20235;-72
2023/10/07 03:44:51;;;;;;;12.10;8.63;;;;;;;;;;5018991;28;20209;-72
2023/10/07 03:47:19;;;;;;;9.53;7.27;;;;;;;;;;5016529;28;20197;-72
2023/10/07 03:49:52;;;;;;;13.67;8.87;;;;;;;;;;5017061;28;20235;-72
2023/10/07 03:52:21;;;;;;;11.43;9.20;;;;;;;;;;5018430;28;20232;-72
2023/10/07 03:54:48;;;;;;;15.03;9.30;;;;;;;;;;5020968;28;20204;-73
2023/10/07 03:57:18;;;;;;;12.73;9.53;;;;;;;;;;5022358;28;20215;-72
2023/10/07 03:59:46;;;;;;;13.83;9.43;;;;;;;;;;5018954;28;20201;-72
2023/10/07 04:02:29;;;;;;;12.10;8.83;;;;;;;;;;5020648;28;20307;-71
2023/10/07 04:05:09;;;;;;;12.63;9.47;;;;;;;;;;5018341;28;20208;-73
2023/10/07 04:07:36;;;;;;;10.50;8.90;;;;;;;;;;5020614;28;20204;-72
2023/10/07 04:10:13;;;;;;;14.67;10.30;;;;;;;;;;5019833;28;20200;-72
2023/10/07 04:12:40;;;;;;;15.43;10.17;;;;;;;;;;5020231;28;20215;-72
2023/10/07 04:15:11;;;;;;;15.40;10.50;;;;;;;;;;5020902;28;20204;-71
2023/10/07 04:17:38;;;;;;;15.30;9.87;;;;;;;;;;5016306;28;20296;-72
2023/10/07 04:20:18;;;;;;;15.77;10.60;;;;;;;;;;5020940;28;21563;-72
2023/10/07 04:22:45;;;;;;;13.47;10.37;;;;;;;;;;5016374;28;20211;-72
2023/10/07 04:25:17;;;;;;;15.33;10.70;;;;;;;;;;5016811;28;20232;-72
2023/10/07 04:27:44;;;;;;;12.53;9.63;;;;;;;;;;5021295;28;20212;-71
2023/10/07 04:30:16;;;;;;;14.50;9.23;;;;;;;;;;5017711;28;20296;-71
2023/10/07 04:32:52;;;;;;;12.17;9.53;;;;;;;;;;5019907;28;20230;-71
2023/10/07 04:35:26;;;;;;;14.20;10.53;;;;;;;;;;5020508;28;20212;-70
2023/10/07 04:37:55;;;;;;;14.07;10.03;;;;;;;;;;5016752;28;20212;-70
2023/10/07 04:40:53;;;;;;;11.47;9.17;;;;;;;;;;5018395;28;20208;-70
2023/10/07 04:43:35;;;;;;;12.07;8.90;;;;;;;;;;5020447;28;20204;-73
2023/10/07 04:46:21;;;;;;;12.93;8.80;;;;;;;;;;5020685;28;20196;-70
2023/10/07 04:48:54;;;;;;;11.07;8.13;;;;;;;;;;5017256;28;20239;-72
2023/10/07 04:51:46;;;;;;;9.33;7.63;;;;;;;;;;5023825;28;20200;-71
2023/10/07 04:54:11;;;;;;;11.83;9.13;;;;;;;;;;5018567;28;20201;-72
2023/10/07 04:56:40;;;;;;;11.17;8.23;;;;;;;;;;5016040;28;20227;-73
2023/10/07 04:59:06;;;;;;;13.40;8.97;;;;;;;;;;5014583;28;20208;-71
2023/10/07 05:01:33;;;;;;;11.53;8.40;;;;;;;;;;5017875;28;20210;-72
2023/10/07 05:04:04;;;;;;;11.07;7.90;;;;;;;;;;5019543;28;20211;-70
2023/10/07 05:06:34;;;;;;;10.80;7.33;;;;;;;;;;5024248;28;20208;-73
2023/10/07 05:09:03;;;;;;;17.00;9.67;;;;;;;;;;5018538;28;20205;-72
2023/10/07 05:11:30;;;;;;;12.53;9.23;;;;;;;;;;5025147;28;20200;-72
2023/10/07 05:13:56;;;;;;;14.20;9.60;;;;;;;;;;5020586;28;20204;-70
2023/10/07 05:16:25;;;;;;;15.63;10.17;;;;;;;;;;5017331;28;20211;-70
2023/10/07 05:18:52;;;;;;;15.97;9.57;;;;;;;;;;5019125;28;20200;-70
2023/10/07 05:21:21;;;;;;;15.37;9.83;;;;;;;;;;5018019;28;20193;-71
2023/10/07 05:23:50;;;;;;;12.47;9.37;;;;;;;;;;5024811;28;20207;-72
2023/10/07 05:26:18;;;;;;;16.67;10.93;;;;;;;;;;5023885;28;20227;-72
2023/10/07 05:28:46;;;;;;;15.90;12.47;;;;;;;;;;5026341;28;20254;-70
2023/10/07 05:31:14;;;;;;;14.17;12.47;;;;;;;;;;5023098;28;20201;-72
2023/10/07 05:33:43;;;;;;;15.23;11.73;;;;;;;;;;5019695;28;20228;-71
2023/10/07 05:36:13;;;;;;;15.43;12.30;;;;;;;;;;5021180;28;20232;-71
2023/10/07 05:38:40;;;;;;;15.00;11.13;;;;;;;;;;5018904;28;20240;-72
2023/10/07 05:41:12;;;;;;;13.50;11.30;;;;;;;;;;5018141;28;20205;-72
2023/10/07 05:43:39;;;;;;;16.37;11.50;;;;;;;;;;5021964;28;20201;-71
2023/10/07 05:46:07;;;;;;;15.53;10.80;;;;;;;;;;5021102;28;20271;-72
2023/10/07 05:48:37;;;;;;;15.63;11.00;;;;;;;;;;5021683;28;20243;-72
2023/10/07 05:51:07;;;;;;;12.57;10.00;;;;;;;;;;5030299;28;20205;-72
2023/10/07 05:53:36;;;;;;;13.07;9.73;;;;;;;;;;5018675;28;20258;-70
2023/10/07 05:56:05;;;;;;;14.17;9.30;;;;;;;;;;5018059;28;20211;-71
2023/10/07 05:58:33;;;;;;;11.03;9.00;;;;;;;;;;5015372;28;20308;-70
2023/10/07 06:01:01;;;;;;;11.60;8.70;;;;;;;;;;5022997;28;20207;-71
2023/10/07 06:03:29;;;;;;;12.83;8.83;;;;;;;;;;5018497;28;20215;-71
2023/10/07 06:05:57;;;;;;;13.50;8.83;;;;;;;;;;5022144;28;20209;-71
2023/10/07 06:08:26;;;;;;;15.77;9.60;;;;;;;;;;5021835;28;20205;-71
2023/10/07 06:10:54;;;;;;;12.43;8.73;;;;;;;;;;5023092;28;20236;-70
2023/10/07 06:13:22;;;;;;;13.83;8.93;;;;;;;;;;5027521;28;20232;-71
2023/10/07 06:15:50;;;;;;;13.57;8.93;;;;;;;;;;5017495;28;20200;-72
2023/10/07 06:18:18;;;;;;;12.77;8.53;;;;;;;;;;5021838;28;20212;-71
2023/10/07 06:20:47;;;;;;;13.40;8.87;;;;;;;;;;5016769;28;20212;-72
2023/10/07 06:23:15;;;;;;;13.60;8.40;;;;;;;;;;5020209;28;20296;-71
2023/10/07 06:25:48;;;;;;;16.37;9.00;;;;;;;;;;5021623;28;20224;-70
2023/10/07 06:28:24;;;;;;;12.30;8.30;;;;;;;;;;5022192;28;20200;-70
2023/10/07 06:30:56;;;;;;;13.07;8.70;;;;;;;;;;5021152;28;20195;-70
2023/10/07 06:33:26;;;;;;;12.90;8.77;;;;;;;;;;5018893;28;20219;-71
2023/10/07 06:35:53;;;;;;;12.73;8.73;;;;;;;;;;5025670;28;20201;-71
2023/10/07 06:38:22;;;;;;;13.63;8.53;;;;;;;;;;5016738;28;20212;-70
2023/10/07 06:40:53;;;;;;;12.90;8.07;;;;;;;;;;5021706;28;20200;-71
2023/10/07 06:43:21;;;;;;;11.57;8.00;;;;;;;;;;5020146;28;20212;-70
2023/10/07 06:45:49;;;;;;;12.87;8.23;;;;;;;;;;5018161;28;20215;-70
2023/10/07 06:48:23;;;;;;;12.47;8.33;;;;;;;;;;5017397;28;20229;-71
2023/10/07 06:50:52;;;;;;;12.73;7.80;;;;;;;;;;5023527;28;20291;-71
2023/10/07 06:53:22;;;;;;;11.50;7.87;;;;;;;;;;5021571;28;20281;-70
2023/10/07 06:55:51;;;;;;;14.03;8.63;;;;;;;;;;5019209;28;20200;-70
2023/10/07 06:58:22;;;;;;;11.80;8.20;;;;;;;;;;5017844;28;20205;-70
2023/10/07 07:00:55;;;;;;;10.23;7.80;;;;;;;;;;5016638;28;20205;-70
2023/10/07 07:03:25;;;;;;;11.97;8.23;;;;;;;;;;5019745;28;20296;-70
2023/10/07 07:05:54;;;;;;;11.77;8.40;;;;;;;;;;5017312;28;20223;-71
2023/10/07 07:08:23;;;;;;;12.27;7.90;;;;;;;;;;5017640;28;20204;-70
2023/10/07 07:10:50;;;;;;;13.17;7.97;;;;;;;;;;5013788;28;20205;-72
2023/10/07 07:13:23;;;;;;;11.37;8.73;;;;;;;;;;5018297;28;20221;-70
2023/10/07 07:15:57;;;;;;;10.77;8.17;;;;;;;;;;5016842;28;20240;-70
2023/10/07 07:18:26;;;;;;;11.77;8.53;;;;;;;;;;5017283;28;20203;-71
2023/10/07 07:21:13;;;;;;;11.33;8.07;;;;;;;;;;5018354;28;20216;-69
2023/10/07 07:23:45;;;;;;;12.00;8.07;;;;;;;;;;5015435;28;20204;-70
2023/10/07 07:26:11;;;;;;;11.93;7.83;;;;;;;;;;5017995;28;20216;-70
2023/10/07 07:28:42;;;;;;;11.70;8.00;;;;;;;;;;5019208;28;20204;-70
2023/10/07 07:31:11;;;;;;;10.37;7.90;;;;;;;;;;5021536;28;20209;-68
2023/10/07 07:33:41;;;;;;;12.07;7.40;;;;;;;;;;5021649;28;20220;-65
2023/10/07 07:36:18;;;;;;;11.13;7.67;;;;;;;;;;5019213;28;20288;-65
2023/10/07 07:38:47;;;;;;;9.57;7.40;;;;;;;;;;5019217;28;20196;-65
2023/10/07 07:41:27;;;;;;;12.80;8.27;;;;;;;;;;5017245;28;20291;-65
2023/10/07 07:43:58;;;;;;;9.90;7.93;;;;;;;;;;5013335;28;20197;-66
2023/10/07 07:46:30;;;;;;;10.27;7.57;;;;;;;;;;5018755;28;20239;-64
2023/10/07 07:49:06;;;;;;;10.67;7.60;;;;;;;;;;5021034;28;20244;-65
2023/10/07 07:51:37;;;;;;;11.27;7.23;;;;;;;;;;5019666;28;20206;-65
2023/10/07 07:54:06;;;;;;;11.30;6.90;;;;;;;;;;5022133;28;20247;-65
2023/10/07 07:56:34;;;;;;;9.73;7.33;;;;;;;;;;5019193;28;20207;-65
2023/10/07 07:59:06;;;;;;;8.80;6.13;;;;;;;;;;5016452;28;20287;-65
2023/10/07 08:01:33;;;;;;;9.83;7.57;;;;;;;;;;5022663;28;20303;-64
2023/10/07 08:04:09;;;;;;;13.00;7.07;;;;;;;;;;5021382;28;20232;-64
2023/10/07 08:06:36;;;;;;;8.87;6.97;;;;;;;;;;5020022;28;20286;-67
2023/10/07 08:09:03;;;;;;;10.40;7.00;;;;;;;;;;5022423;28;20204;-64
2023/10/07 08:11:35;;;;;;;8.90;6.70;;;;;;;;;;5020649;28;20200;-65
2023/10/07 08:14:09;;;;;;;10.73;7.00;;;;;;;;;;5019763;28;20235;-66
2023/10/07 08:16:49;;;;;;;12.27;7.37;;;;;;;;;;5017801;28;20289;-65
2023/10/07 08:19:20;;;;;;;11.97;6.70;;;;;;;;;;5019080;28;20210;-65
2023/10/07 08:21:51;;;;;;;9.20;6.73;;;;;;;;;;5017932;28;20220;-66
2023/10/07 08:24:18;;;;;;;11.63;6.90;;;;;;;;;;5016497;28;20239;-64
2023/10/07 08:26:48;;;;;;;11.20;7.20;;;;;;;;;;5021409;28;20204;-64
2023/10/07 08:29:30;;;;;;;8.57;6.40;;;;;;;;;;5017179;28;20205;-65
2023/10/07 08:31:58;;;;;;;14.73;6.50;;;;;;;;;;5018272;28;20200;-64
2023/10/07 08:34:33;;;;;;;10.03;6.57;;;;;;;;;;5021202;28;20205;-65
2023/10/07 08:37:02;;;;;;;9.60;6.83;;;;;;;;;;5011191;28;20197;-63
2023/10/07 08:39:44;;;;;;;9.67;5.87;;;;;;;;;;5014175;28;20213;-65
2023/10/07 08:42:13;;;;;;;10.63;6.90;;;;;;;;;;5016533;28;20211;-68
2023/10/07 08:44:40;;;;;;;12.83;7.00;;;;;;;;;;5009799;28;20205;-70
2023/10/07 08:47:11;;;;;;;11.77;6.63;;;;;;;;;;5014947;28;20210;-69
2023/10/07 08:49:40;;;;;;;16.70;6.60;;;;;;;;;;5012862;28;20254;-69
2023/10/07 08:52:09;;;;;;;9.37;6.73;;;;;;;;;;5014569;28;20205;-69
2023/10/07 08:54:38;;;;;;;7.70;6.43;;;;;;;;;;5011047;28;20318;-69
2023/10/07 08:57:09;;;;;;;8.40;5.83;;;;;;;;;;5012931;28;20214;-71
2023/10/07 08:59:40;;;;;;;10.02;6.82;;;;;;;;;;5012680;28;20209;-69
2023/10/07 09:02:25;;;;;;;9.40;7.03;;;;;;;;;;5012841;28;20208;-70
2023/10/07 09:04:54;;;;;;;9.60;6.30;;;;;;;;;;5010153;28;20227;-70
2023/10/07 09:07:22;;;;;;;9.90;6.30;;;;;;;;;;5016515;28;20283;-69
2023/10/07 09:09:49;;;;;;;9.93;6.37;;;;;;;;;;5018639;28;20207;-69
2023/10/07 09:12:24;;;;;;;13.43;6.60;;;;;;;;;;5018586;28;20217;-69
2023/10/07 09:14:55;;;;;;;11.25;7.55;;;;;;;;;;5015405;28;20282;-70
2023/10/07 09:17:26;;;;;;;10.45;7.07;;;;;;;;;;5019697;28;20208;-69
2023/10/07 09:19:58;;;;;;;9.93;6.85;;;;;;;;;;5015524;28;20197;-69
2023/10/07 09:22:33;;;;;;;8.75;6.30;;;;;;;;;;5020117;28;20307;-70
2023/10/07 09:25:16;;;;;;;10.18;6.97;;;;;;;;;;5020367;28;20302;-69
2023/10/07 09:27:43;;;;;;;8.63;6.72;;;;;;;;;;5015267;28;20270;-69
2023/10/07 09:30:35;;;;;;;8.23;6.30;;;;;;;;;;5015773;28;20208;-69
2023/10/07 09:33:06;;;;;;;10.90;6.20;;;;;;;;;;5018455;28;20231;-70
2023/10/07 09:35:37;;;;;;;11.70;6.28;;;;;;;;;;5013160;28;20204;-69
2023/10/07 09:38:12;;;;;;;11.37;6.07;;;;;;;;;;5018675;28;20207;-69
2023/10/07 09:41:11;;;;;;;10.70;6.15;;;;;;;;;;5017569;28;20203;-69
2023/10/07 09:43:38;;;;;;;8.18;5.45;;;;;;;;;;5015188;28;21776;-69
2023/10/07 09:46:07;;;;;;;8.38;5.63;;;;;;;;;;5014928;28;20208;-70
2023/10/07 09:48:41;;;;;;;11.52;6.05;;;;;;;;;;5015826;28;20305;-70
2023/10/07 09:51:22;;;;;;;8.77;5.50;;;;;;;;;;5024800;28;20302;-69
2023/10/07 09:53:57;;;;;;;7.72;5.40;;;;;;;;;;5017403;28;20220;-69
2023/10/07 09:56:31;;;;;;;10.32;5.50;;;;;;;;;;5022708;28;20209;-69
2023/10/07 09:59:13;;;;;;;7.78;5.85;;;;;;;;;;5021277;28;20223;-69
2023/10/07 10:01:53;;;;;;;8.80;5.38;;;;;;;;;;5017414;28;20200;-68
2023/10/07 10:04:33;;;;;;;7.75;5.60;;;;;;;;;;5013602;28;20817;-69
2023/10/07 10:07:18;;;;;;;8.27;5.22;;;;;;;;;;5017667;28;20371;-68
2023/10/07 10:10:05;;;;;;;8.07;5.40;;;;;;;;;;5017022;28;20205;-68
2023/10/07 10:12:49;;;;;;;6.70;5.15;;;;;;;;;;5021382;28;20284;-68
2023/10/07 10:18:02;;;;;;;8.68;5.03;;;;;;;;;;5014872;28;20362;-69
2023/10/07 10:20:42;;;;;;;8.13;5.43;;;;;;;;;;5024468;28;20210;-68
2023/10/07 10:23:18;;;;;;;8.00;5.15;;;;;;;;;;5024119;28;20203;-68
2023/10/07 10:25:48;;;;;;;9.35;5.78;;;;;;;;;;5020165;28;20211;-67
2023/10/07 10:28:21;;;;;;;8.55;5.85;;;;;;;;;;5018877;28;20227;-68
2023/10/07 10:30:50;;;;;;;9.82;6.00;;;;;;;;;;5017283;28;20208;-67
2023/10/07 10:33:20;;;;;;;10.98;5.88;;;;;;;;;;5021111;28;20217;-69
2023/10/07 10:35:51;;;;;;;8.68;5.65;;;;;;;;;;5019976;28;20200;-68
2023/10/07 10:38:20;;;;;;;8.23;5.82;;;;;;;;;;5014679;28;20213;-68
2023/10/07 10:40:47;;;;;;;8.77;6.07;;;;;;;;;;5026422;28;20219;-68
2023/10/07 10:43:23;;;;;;;9.27;5.40;;;;;;;;;;5020811;28;20208;-69
2023/10/07 10:46:01;;;;;;;9.38;6.10;;;;;;;;;;5016372;28;20204;-68
2023/10/07 10:48:29;;;;;;;7.60;5.28;;;;;;;;;;5027072;28;20236;-69
2023/10/07 10:50:57;;;;;;;9.98;5.68;;;;;;;;;;5027223;28;20204;-68
2023/10/07 10:53:26;;;;;;;8.05;5.95;;;;;;;;;;5022733;28;20228;-69
2023/10/07 10:55:56;;;;;;;5.93;5.00;;;;;;;;;;5021752;28;20208;-68
2023/10/07 10:58:23;;;;;;;7.90;6.05;;;;;;;;;;5024080;28;20216;-69
2023/10/07 11:00:51;;;;;;;7.47;5.50;;;;;;;;;;5021031;28;20203;-68
2023/10/07 11:03:20;;;;;;;9.80;6.05;;;;;;;;;;5018466;28;20225;-63
2023/10/07 11:05:48;;;;;;;8.50;5.72;;;;;;;;;;5024505;28;20207;-66
2023/10/07 11:08:22;;;;;;;8.15;5.50;;;;;;;;;;5020771;28;20208;-63
2023/10/07 11:10:51;;;;;;;7.90;5.63;;;;;;;;;;5021317;28;20219;-63
2023/10/07 11:13:18;;;;;;;9.02;6.05;;;;;;;;;;5017089;28;20201;-63
2023/10/07 11:15:58;;;;;;;7.25;5.18;;;;;;;;;;5017438;28;20208;-64
2023/10/07 11:18:30;;;;;;;8.45;5.65;;;;;;;;;;5024969;28;20236;-63
2023/10/07 11:20:57;;;;;;;9.43;5.82;;;;;;;;;;5024927;28;20205;-63
2023/10/07 11:23:27;;;;;;;10.45;5.25;;;;;;;;;;5022510;28;20211;-63
2023/10/07 11:25:56;;;;;;;8.13;5.20;;;;;;;;;;5016375;28;20209;-63
2023/10/07 11:28:23;;;;;;;11.27;5.53;;;;;;;;;;5022138;28;20209;-64
2023/10/07 11:30:51;;;;;;;7.68;5.15;;;;;;;;;;5025585;28;20213;-62
2023/10/07 11:33:19;;;;;;;7.88;5.32;;;;;;;;;;5023108;28;20207;-62
2023/10/07 11:35:58;;;;;;;6.30;5.20;;;;;;;;;;5017041;28;20204;-63
2023/10/07 11:38:26;;;;;;;6.97;5.20;;;;;;;;;;5027015;28;20208;-63
2023/10/07 11:40:53;;;;;;;6.97;5.45;;;;;;;;;;5018354;28;20219;-63
2023/10/07 11:43:21;;;;;;;7.07;5.50;;;;;;;;;;5019075;28;20213;-62
2023/10/07 11:45:50;;;;;;;8.57;5.18;;;;;;;;;;5019819;28;20204;-63
2023/10/07 11:48:19;;;;;;;6.75;5.03;;;;;;;;;;5021720;28;20239;-63
2023/10/07 11:50:47;;;;;;;6.10;5.13;;;;;;;;;;5019663;28;20232;-63
2023/10/07 11:53:14;;;;;;;8.38;5.43;;;;;;;;;;5018196;28;20216;-63
2023/10/07 11:55:42;;;;;;;6.97;5.38;;;;;;;;;;5020726;28;20251;-64
2023/10/07 11:58:09;;;;;;;7.90;5.45;;;;;;;;;;5027019;28;20209;-65
2023/10/07 12:00:42;;;;;;;10.32;5.15;;;;;;;;;;5022647;28;20223;-65
2023/10/07 12:03:10;;;;;;;7.47;4.78;;;;;;;;;;5020598;28;20204;-65
2023/10/07 12:05:40;;;;;;;7.57;4.80;;;;;;;;;;5012905;28;20312;-66
2023/10/07 12:08:11;;;;;;;7.53;4.70;;;;;;;;;;5019231;28;20235;-65
2023/10/07 12:10:39;;;;;;;6.20;4.70;;;;;;;;;;5017795;28;20263;-65
2023/10/07 12:13:07;;;;;;;8.80;4.43;;;;;;;;;;5021223;28;20287;-65
2023/10/07 12:15:34;;;;;;;9.95;4.63;;;;;;;;;;5023789;28;20274;-65
2023/10/07 12:18:06;;;;;;;8.10;4.70;;;;;;;;;;5021637;28;20208;-66
2023/10/07 12:20:34;;;;;;;9.23;4.85;;;;;;;;;;5017619;28;20215;-65
2023/10/07 12:23:02;;;;;;;9.52;4.65;;;;;;;;;;5019255;28;20235;-65
2023/10/07 12:25:29;;;;;;;8.23;4.70;;;;;;;;;;5023500;28;20204;-65
2023/10/07 12:27:56;;;;;;;7.47;5.00;;;;;;;;;;5022052;28;20215;-66
2023/10/07 12:30:23;;;;;;;6.68;4.38;;;;;;;;;;5020736;28;20511;-65
2023/10/07 12:32:51;;;;;;;7.57;4.45;;;;;;;;;;5016004;28;20209;-65
2023/10/07 12:35:21;;;;;;;5.72;4.40;;;;;;;;;;5018262;28;20229;-66
2023/10/07 12:37:48;;;;;;;5.53;4.10;;;;;;;;;;5018670;28;20221;-66
2023/10/07 12:40:17;;;;;;;5.57;4.35;;;;;;;;;;5022078;28;20267;-65
2023/10/07 12:42:45;;;;;;;6.53;4.72;;;;;;;;;;5018410;28;20212;-65
2023/10/07 12:45:12;;;;;;;6.18;3.90;;;;;;;;;;5021026;28;20200;-64
2023/10/07 12:47:39;;;;;;;5.97;4.10;;;;;;;;;;5016940;28;20200;-65
2023/10/07 12:50:20;;;;;;;5.28;4.18;;;;;;;;;;5023552;28;20263;-64
2023/10/07 12:52:49;;;;;;;5.10;3.60;;;;;;;;;;5017904;28;20327;-65
2023/10/07 12:55:16;;;;;;;8.43;4.03;;;;;;;;;;5017892;28;20220;-65
2023/10/07 12:57:43;;;;;;;6.22;3.85;;;;;;;;;;5019172;28;20211;-65
2023/10/07 13:00:20;;;;;;;5.78;4.20;;;;;;;;;;5022244;28;20208;-65
2023/10/07 13:02:47;;;;;;;6.28;4.00;;;;;;;;;;5017930;28;20203;-65
2023/10/07 13:05:18;;;;;;;6.47;4.00;;;;;;;;;;5019313;28;20204;-64
2023/10/07 13:07:45;;;;;;;6.15;3.65;;;;;;;;;;5015162;28;20268;-66
2023/10/07 13:10:14;;;;;;;6.40;3.88;;;;;;;;;;5019735;28;20227;-65
2023/10/07 13:12:41;;;;;;;4.80;3.35;;;;;;;;;;5017005;28;20196;-65
2023/10/07 13:15:14;;;;;;;5.97;3.55;;;;;;;;;;5015350;28;20227;-65
2023/10/07 13:17:45;;;;;;;6.32;3.90;;;;;;;;;;5018443;28;20227;-66
2023/10/07 13:20:13;;;;;;;6.65;4.00;;;;;;;;;;5022330;28;20442;-65
2023/10/07 13:22:41;;;;;;;6.60;3.83;;;;;;;;;;5018438;28;20205;-67
2023/10/07 13:25:11;;;;;;;6.32;3.80;;;;;;;;;;5025403;28;20204;-67
2023/10/07 13:27:40;;;;;;;4.07;3.17;;;;;;;;;;5018933;28;20224;-67
2023/10/07 13:30:11;;;;;;;4.68;3.35;;;;;;;;;;5017039;28;20213;-67
2023/10/07 13:32:40;;;;;;;3.67;3.00;;;;;;;;;;5024280;28;20210;-67
2023/10/07 13:35:08;;;;;;;6.43;3.45;;;;;;;;;;5023473;28;20223;-67
2023/10/07 13:37:37;;;;;;;4.75;3.35;;;;;;;;;;5023434;28;20207;-66
2023/10/07 13:40:07;;;;;;;4.28;2.70;;;;;;;;;;5024200;28;20216;-67
2023/10/07 13:42:34;;;;;;;5.20;2.80;;;;;;;;;;5020479;28;20268;-66
2023/10/07 13:45:08;;;;;;;4.13;3.10;;;;;;;;;;5023739;28;20200;-67
2023/10/07 13:47:35;;;;;;;4.63;2.97;;;;;;;;;;5021406;28;20200;-67
2023/10/07 13:50:04;;;;;;;3.42;2.72;;;;;;;;;;5024673;28;20269;-67
2023/10/07 13:52:40;;;;;;;5.82;2.85;;;;;;;;;;5022686;28;20232;-67
2023/10/07 13:55:21;;;;;;;5.05;3.13;;;;;;;;;;5019753;28;20235;-67
2023/10/07 13:57:49;;;;;;;3.92;2.90;;;;;;;;;;5024106;28;20299;-67
2023/10/07 14:00:28;;;;;;;5.35;2.92;;;;;;;;;;5022191;28;20204;-67
2023/10/07 14:02:56;;;;;;;6.25;3.20;;;;;;;;;;5027161;28;20224;-67
2023/10/07 14:05:24;;;;;;;7.43;2.85;;;;;;;;;;5019517;28;20279;-67
2023/10/07 14:07:52;;;;;;;5.00;3.03;;;;;;;;;;5020889;28;20201;-67
2023/10/07 14:10:21;;;;;;;3.30;3.00;;;;;;;;;;5023077;28;20208;-68
2023/10/07 14:12:50;;;;;;;3.90;2.92;;;;;;;;;;5021705;28;20303;-68
2023/10/07 14:15:20;;;;;;;3.85;3.05;;;;;;;;;;5020917;28;20224;-68
2023/10/07 14:17:47;;;;;;;6.05;3.15;;;;;;;;;;5026836;28;20289;-68
2023/10/07 14:20:15;;;;;;;3.28;2.80;;;;;;;;;;5024260;28;20212;-67
2023/10/07 14:22:43;;;;;;;4.22;2.92;;;;;;;;;;5023320;28;20196;-67
2023/10/07 14:25:10;;;;;;;4.22;3.00;;;;;;;;;;5021258;28;20283;-66
2023/10/07 14:27:37;;;;;;;5.70;3.28;;;;;;;;;;5019607;28;20208;-67
2023/10/07 14:30:05;;;;;;;3.63;3.00;;;;;;;;;;5022355;28;20205;-67
2023/10/07 14:32:33;;;;;;;3.95;3.17;;;;;;;;;;5023220;28;20197;-65
2023/10/07 14:35:00;;;;;;;5.00;2.90;;;;;;;;;;5035349;28;20233;-64
2023/10/07 14:37:28;;;;;;;3.97;2.83;;;;;;;;;;5017784;28;20208;-65
2023/10/07 14:39:55;;;;;;;5.55;3.10;;;;;;;;;;5019536;28;20304;-65
2023/10/07 14:42:22;;;;;;;5.90;3.10;;;;;;;;;;5028202;28;20200;-64
2023/10/07 14:44:49;;;;;;;4.90;3.15;;;;;;;;;;5020109;28;20208;-64
2023/10/07 14:47:16;;;;;;;3.38;3.05;;;;;;;;;;5025849;28;20295;-64
2023/10/07 14:49:45;;;;;;;4.07;2.80;;;;;;;;;;5023342;28;20240;-64
2023/10/07 14:52:12;;;;;;;4.13;3.20;;;;;;;;;;5025726;28;20230;-65
2023/10/07 14:54:40;;;;;;;4.18;3.00;;;;;;;;;;5021671;28;20224;-65
2023/10/07 14:57:07;;;;;;;3.78;2.92;;;;;;;;;;5018153;28;20205;-65
2023/10/07 14:59:34;;;;;;;7.15;2.97;;;;;;;;;;5022142;28;20212;-64
2023/10/07 15:02:02;;;;;;;3.53;3.10;;;;;;;;;;5029526;28;20212;-64
2023/10/07 15:04:29;;;;;;;6.38;3.25;;;;;;;;;;5017971;28;20211;-64